Time,TemperatureF,DewpointF,PressureIn,WindDirection,WindDirectionDegrees,WindSpeedMPH,WindSpeedGustMPH,Humidity,HourlyPrecipIn,Conditions,Clouds,dailyrainin,SoftwareType,DateUTC
2013-05-25 00:09:00,51.0,48.0,29.83,ENE,67,6.0,29.0,90,0.00,,,0.00,weatherlink.com 1.10,2013-05-25 04:09:00,
2013-05-25 00:24:00,50.9,48.0,29.83,NE,40,16.0,18.0,90,0.00,,,0.00,weatherlink.com 1.10,2013-05-25 04:24:00,
2013-05-25 00:39:00,50.7,48.0,29.83,NE,39,16.0,21.0,91,0.00,,,0.00,weatherlink.com 1.10,2013-05-25 04:39:00,
2013-05-25 00:54:00,50.3,48.0,29.83,NE,49,7.0,21.0,92,0.00,,,0.00,weatherlink.com 1.10,2013-05-25 04:54:00,
2013-05-25 01:09:00,50.2,48.0,29.82,NNE,28,10.0,19.0,92,0.00,,,0.00,weatherlink.com 1.10,2013-05-25 05:09:00,
2013-05-25 01:24:00,50.3,48.0,29.81,NE,44,9.0,20.0,92,0.00,,,0.00,weatherlink.com 1.10,2013-05-25 05:24:00,
2013-05-25 01:39:00,50.2,48.0,29.81,NE,45,4.0,19.0,92,0.00,,,0.00,weatherlink.com 1.10,2013-05-25 05:39:00,
2013-05-25 01:54:00,50.3,48.0,29.81,NE,40,15.0,21.0,91,0.00,,,0.00,weatherlink.com 1.10,2013-05-25 05:54:00,
2013-05-25 02:09:00,50.4,48.0,29.80,NE,36,16.0,18.0,91,0.00,,,0.00,weatherlink.com 1.10,2013-05-25 06:09:00,
2013-05-25 02:24:00,50.4,48.0,29.79,NE,44,15.0,19.0,91,0.00,,,0.00,weatherlink.com 1.10,2013-05-25 06:24:00,
2013-05-25 02:39:00,50.4,48.0,29.79,NNE,32,14.0,20.0,91,0.00,,,0.00,weatherlink.com 1.10,2013-05-25 06:39:00,
2013-05-25 02:54:00,50.5,48.0,29.78,NE,37,16.0,19.0,91,0.00,,,0.00,weatherlink.com 1.10,2013-05-25 06:54:00,
2013-05-25 03:09:00,50.5,48.0,29.79,NE,45,15.0,16.0,91,0.00,,,0.00,weatherlink.com 1.10,2013-05-25 07:09:00,
2013-05-25 03:24:00,50.5,48.0,29.79,NNE,32,13.0,16.0,91,0.00,,,0.00,weatherlink.com 1.10,2013-05-25 07:24:00,
2013-05-25 03:39:00,50.3,48.0,29.80,NNE,26,14.0,18.0,91,0.00,,,0.00,weatherlink.com 1.10,2013-05-25 07:39:00,
2013-05-25 03:54:00,50.3,48.0,29.80,NE,34,19.0,22.0,91,0.00,,,0.00,weatherlink.com 1.10,2013-05-25 07:54:00,
2013-05-25 04:10:00,50.1,48.0,29.80,NE,39,11.0,19.0,92,0.00,,,0.00,weatherlink.com 1.10,2013-05-25 08:10:00,
2013-05-25 04:25:00,49.8,48.0,29.79,NE,34,13.0,21.0,92,0.00,,,0.00,weatherlink.com 1.10,2013-05-25 08:25:00,
2013-05-25 04:40:00,49.5,48.0,29.80,NE,39,14.0,18.0,93,0.00,,,0.00,weatherlink.com 1.10,2013-05-25 08:40:00,
2013-05-25 04:55:00,49.2,48.0,29.80,NE,37,14.0,16.0,94,0.00,,,0.00,weatherlink.com 1.10,2013-05-25 08:55:00,
2013-05-25 05:10:00,49.0,47.0,29.80,NE,42,13.0,18.0,94,0.01,,,0.01,weatherlink.com 1.10,2013-05-25 09:10:00,
2013-05-25 05:25:00,48.7,47.0,29.79,NNE,30,4.0,18.0,95,0.02,,,0.02,weatherlink.com 1.10,2013-05-25 09:25:00,
2013-05-25 05:40:00,48.7,47.0,29.77,NE,37,18.0,23.0,95,0.03,,,0.03,weatherlink.com 1.10,2013-05-25 09:40:00,
2013-05-25 05:55:00,48.8,47.0,29.77,NE,34,20.0,21.0,94,0.03,,,0.03,weatherlink.com 1.10,2013-05-25 09:55:00,
2013-05-25 06:10:00,49.0,47.0,29.78,NE,37,14.0,19.0,94,0.02,,,0.03,weatherlink.com 1.10,2013-05-25 10:10:00,
2013-05-25 06:25:00,49.4,48.0,29.77,NNE,33,16.0,19.0,93,0.01,,,0.03,weatherlink.com 1.10,2013-05-25 10:25:00,
2013-05-25 06:40:00,49.7,48.0,29.77,NNE,26,13.0,19.0,93,0.00,,,0.03,weatherlink.com 1.10,2013-05-25 10:40:00,
2013-05-25 06:55:00,49.9,48.0,29.77,NE,38,9.0,18.0,93,0.00,,,0.03,weatherlink.com 1.10,2013-05-25 10:55:00,
2013-05-25 07:10:00,50.3,48.0,29.76,NE,34,19.0,20.0,92,0.00,,,0.03,weatherlink.com 1.10,2013-05-25 11:10:00,
2013-05-25 07:25:00,50.8,49.0,29.76,NE,39,5.0,18.0,92,0.00,,,0.03,weatherlink.com 1.10,2013-05-25 11:25:00,
2013-05-25 07:40:00,51.0,49.0,29.76,NE,47,7.0,22.0,92,0.00,,,0.03,weatherlink.com 1.10,2013-05-25 11:40:00,
2013-05-25 07:55:00,51.1,49.0,29.75,ENE,67,7.0,22.0,92,0.00,,,0.03,weatherlink.com 1.10,2013-05-25 11:55:00,
2013-05-25 08:10:00,51.1,49.0,29.75,ENE,58,5.0,24.0,92,0.00,,,0.03,weatherlink.com 1.10,2013-05-25 12:10:00,
2013-05-25 08:25:00,50.8,49.0,29.74,NNE,17,11.0,26.0,93,0.00,,,0.03,weatherlink.com 1.10,2013-05-25 12:25:00,
2013-05-25 08:40:00,50.8,49.0,29.74,NE,40,6.0,16.0,94,0.00,,,0.03,weatherlink.com 1.10,2013-05-25 12:40:00,
2013-05-25 08:55:00,50.9,49.0,29.75,NE,49,13.0,19.0,93,0.00,,,0.03,weatherlink.com 1.10,2013-05-25 12:55:00,
2013-05-25 09:10:00,50.8,49.0,29.74,ENE,60,6.0,18.0,94,0.00,,,0.03,weatherlink.com 1.10,2013-05-25 13:10:00,
2013-05-25 09:25:00,50.8,50.0,29.73,SE,144,2.0,9.0,95,0.00,,,0.03,weatherlink.com 1.10,2013-05-25 13:25:00,
2013-05-25 09:40:00,50.9,50.0,29.73,SE,132,4.0,9.0,95,0.00,,,0.03,weatherlink.com 1.10,2013-05-25 13:40:00,
2013-05-25 09:55:00,51.1,50.0,29.73,East,87,5.0,13.0,95,0.01,,,0.04,weatherlink.com 1.10,2013-05-25 13:55:00,
2013-05-25 10:10:00,51.2,50.0,29.73,SE,132,8.0,9.0,95,0.01,,,0.04,weatherlink.com 1.10,2013-05-25 14:10:00,
2013-05-25 10:25:00,51.2,50.0,29.73,ESE,111,0.0,15.0,95,0.02,,,0.05,weatherlink.com 1.10,2013-05-25 14:25:00,
2013-05-25 10:40:00,51.3,50.0,29.72,ENE,67,8.0,11.0,95,0.02,,,0.05,weatherlink.com 1.10,2013-05-25 14:40:00,
2013-05-25 10:55:00,51.3,50.0,29.72,SE,134,5.0,13.0,95,0.01,,,0.05,weatherlink.com 1.10,2013-05-25 14:55:00,
2013-05-25 11:10:00,51.0,50.0,29.73,East,83,6.0,13.0,95,0.01,,,0.05,weatherlink.com 1.10,2013-05-25 15:10:00,
2013-05-25 11:25:00,50.8,50.0,29.73,ENE,78,4.0,8.0,95,0.00,,,0.05,weatherlink.com 1.10,2013-05-25 15:25:00,
2013-05-25 11:40:00,50.9,50.0,29.73,ESE,109,2.0,8.0,95,0.00,,,0.05,weatherlink.com 1.10,2013-05-25 15:40:00,
2013-05-25 12:10:00,50.6,49.0,29.72,ENE,66,6.0,13.0,94,0.01,,,0.06,weatherlink.com 1.10,2013-05-25 16:10:00,
2013-05-25 12:40:00,50.7,49.0,29.72,ENE,76,1.0,9.0,95,0.01,,,0.06,weatherlink.com 1.10,2013-05-25 16:40:00,
2013-05-25 12:55:00,50.6,49.0,29.71,East,92,5.0,22.0,95,0.00,,,0.06,weatherlink.com 1.10,2013-05-25 16:55:00,
2013-05-25 14:43:00,49.6,48.0,29.70,ENE,67,7.0,18.0,95,0.02,,,0.08,weatherlink.com 1.10,2013-05-25 18:43:00,
2013-05-25 14:55:00,49.5,48.0,29.71,NE,55,2.0,23.0,95,0.02,,,0.08,weatherlink.com 1.10,2013-05-25 18:55:00,
2013-05-25 15:10:00,49.5,48.0,29.71,ENE,65,4.0,18.0,96,0.01,,,0.08,weatherlink.com 1.10,2013-05-25 19:10:00,
2013-05-25 15:25:00,49.8,49.0,29.70,ENE,58,3.0,12.0,96,0.02,,,0.09,weatherlink.com 1.10,2013-05-25 19:25:00,
2013-05-25 15:40:00,49.8,49.0,29.70,NE,36,10.0,15.0,96,0.01,,,0.09,weatherlink.com 1.10,2013-05-25 19:40:00,
2013-05-25 15:56:00,49.9,49.0,29.69,ENE,63,4.0,14.0,96,0.01,,,0.09,weatherlink.com 1.10,2013-05-25 19:56:00,
2013-05-25 16:11:00,50.0,49.0,29.69,East,82,0.0,11.0,96,0.01,,,0.09,weatherlink.com 1.10,2013-05-25 20:11:00,
2013-05-25 16:26:00,49.9,49.0,29.69,ENE,76,1.0,12.0,96,0.01,,,0.10,weatherlink.com 1.10,2013-05-25 20:26:00,
2013-05-25 16:41:00,49.9,49.0,29.69,NNW,334,2.0,12.0,96,0.01,,,0.10,weatherlink.com 1.10,2013-05-25 20:41:00,
2013-05-25 16:56:00,49.8,49.0,29.69,NE,44,1.0,12.0,96,0.01,,,0.10,weatherlink.com 1.10,2013-05-25 20:56:00,
2013-05-25 17:11:00,49.7,49.0,29.68,NE,42,13.0,13.0,96,0.01,,,0.10,weatherlink.com 1.10,2013-05-25 21:11:00,
2013-05-25 17:26:00,49.7,49.0,29.68,NNW,347,2.0,7.0,96,0.00,,,0.10,weatherlink.com 1.10,2013-05-25 21:26:00,
2013-05-25 17:41:00,49.6,49.0,29.69,East,96,5.0,7.0,96,0.00,,,0.10,weatherlink.com 1.10,2013-05-25 21:41:00,
2013-05-25 17:56:00,49.4,48.0,29.69,ESE,103,1.0,5.0,96,0.01,,,0.11,weatherlink.com 1.10,2013-05-25 21:56:00,
2013-05-25 18:11:00,49.4,48.0,29.69,ESE,105,1.0,4.0,96,0.01,,,0.11,weatherlink.com 1.10,2013-05-25 22:11:00,
2013-05-25 18:26:00,49.4,49.0,29.69,East,101,1.0,4.0,97,0.02,,,0.12,weatherlink.com 1.10,2013-05-25 22:26:00,
2013-05-25 18:41:00,49.4,49.0,29.69,SE,128,3.0,4.0,97,0.02,,,0.12,weatherlink.com 1.10,2013-05-25 22:41:00,
2013-05-25 18:56:00,49.2,48.0,29.69,East,101,1.0,4.0,97,0.01,,,0.12,weatherlink.com 1.10,2013-05-25 22:56:00,
2013-05-25 19:11:00,49.1,48.0,29.69,SE,146,1.0,4.0,97,0.01,,,0.12,weatherlink.com 1.10,2013-05-25 23:11:00,
2013-05-25 19:26:00,49.2,48.0,29.70,East,99,0.0,2.0,97,0.02,,,0.14,weatherlink.com 1.10,2013-05-25 23:26:00,
2013-05-25 19:41:00,49.3,49.0,29.69,East,84,2.0,3.0,97,0.03,,,0.15,weatherlink.com 1.10,2013-05-25 23:41:00,
2013-05-25 19:56:00,49.2,48.0,29.69,ESE,115,0.0,3.0,97,0.04,,,0.16,weatherlink.com 1.10,2013-05-25 23:56:00,
2013-05-25 20:11:00,49.0,48.0,29.69,ENE,58,1.0,6.0,97,0.05,,,0.17,weatherlink.com 1.10,2013-05-26 00:11:00,
2013-05-25 20:26:00,48.9,48.0,29.69,ESE,122,0.0,6.0,97,0.04,,,0.18,weatherlink.com 1.10,2013-05-26 00:26:00,
2013-05-25 20:41:00,48.8,48.0,29.70,SSE,150,1.0,8.0,97,0.05,,,0.20,weatherlink.com 1.10,2013-05-26 00:41:00,
2013-05-25 20:56:00,48.5,48.0,29.70,ESE,106,5.0,6.0,97,0.05,,,0.21,weatherlink.com 1.10,2013-05-26 00:56:00,
2013-05-25 21:11:00,48.2,47.0,29.70,East,87,3.0,5.0,97,0.05,,,0.22,weatherlink.com 1.10,2013-05-26 01:11:00,
2013-05-25 21:26:00,48.1,47.0,29.69,ESE,107,4.0,6.0,97,0.04,,,0.22,weatherlink.com 1.10,2013-05-26 01:26:00,
2013-05-25 21:41:00,48.1,47.0,29.69,SE,132,1.0,6.0,97,0.02,,,0.22,weatherlink.com 1.10,2013-05-26 01:41:00,
2013-05-25 21:56:00,48.0,47.0,29.69,East,82,2.0,9.0,97,0.01,,,0.22,weatherlink.com 1.10,2013-05-26 01:56:00,
2013-05-25 22:11:00,47.9,47.0,29.70,SE,132,6.0,7.0,97,0.01,,,0.23,weatherlink.com 1.10,2013-05-26 02:11:00,
2013-05-25 22:26:00,47.9,47.0,29.69,NNE,22,1.0,5.0,97,0.01,,,0.23,weatherlink.com 1.10,2013-05-26 02:26:00,
2013-05-25 22:41:00,47.9,47.0,29.69,East,86,2.0,7.0,97,0.02,,,0.24,weatherlink.com 1.10,2013-05-26 02:41:00,
2013-05-25 22:56:00,48.0,47.0,29.69,ENE,73,1.0,6.0,97,0.02,,,0.24,weatherlink.com 1.10,2013-05-26 02:56:00,
2013-05-25 23:11:00,48.0,47.0,29.69,ESE,118,0.0,5.0,97,0.03,,,0.26,weatherlink.com 1.10,2013-05-26 03:11:00,
2013-05-25 23:26:00,47.9,47.0,29.69,SE,134,1.0,8.0,97,0.04,,,0.27,weatherlink.com 1.10,2013-05-26 03:26:00,
2013-05-25 23:41:00,47.9,47.0,29.69,ESE,121,1.0,5.0,97,0.03,,,0.27,weatherlink.com 1.10,2013-05-26 03:41:00,
2013-05-25 23:56:00,47.9,47.0,29.69,SE,125,2.0,9.0,97,0.03,,,0.28,weatherlink.com 1.10,2013-05-26 03:56:00,